Date,TemperatureHighF,TemperatureAvgF,TemperatureLowF,DewpointHighF,DewpointAvgF,DewpointLowF,HumidityHigh,HumidityAvg,HumidityLow,PressureMaxIn,PressureMinIn,WindSpeedMaxMPH,WindSpeedAvgMPH,GustSpeedMaxMPH,PrecipitationSumIn
2013-1-1,38.3,34.3,25.7,37.0,32.0,21.3,96,91,83,30.23,30.01,10,5,18,0.00
2013-1-2,34.8,26.9,20.7,22.8,19.2,16.2,86,73,51,30.30,30.19,7,3,15,0.00
2013-1-3,40.6,29.8,19.7,29.6,24.3,17.9,93,81,63,30.42,30.25,8,1,12,0.00
2013-1-4,46.6,32.4,21.3,33.5,26.7,19.6,95,81,54,30.48,30.38,8,1,13,0.00
2013-1-5,43.3,35.0,25.2,34.2,29.6,23.3,95,81,65,30.39,30.23,6,1,8,0.00
2013-1-6,46.0,36.2,25.5,36.4,30.7,23.2,96,81,62,30.40,30.17,13,4,20,0.00
2013-1-7,49.6,32.8,21.9,31.0,25.3,19.9,94,76,45,30.47,30.22,10,1,15,0.00
2013-1-8,56.9,40.8,26.1,39.2,32.2,23.3,90,73,49,30.28,30.17,6,1,10,0.00
2013-1-9,55.4,50.5,45.2,49.5,45.6,37.7,95,83,69,30.38,30.22,8,3,16,0.11
2013-1-10,66.9,57.8,48.1,62.7,55.6,46.2,96,92,85,30.36,29.86,17,6,30,1.01
2013-1-11,64.7,58.3,53.7,56.7,52.8,49.1,93,82,67,29.99,29.86,14,5,27,0.01
2013-1-12,70.1,65.5,55.8,66.3,63.1,53.9,98,92,86,29.93,29.67,12,5,23,0.15
2013-1-13,68.9,36.5,26.1,65.6,34.2,21.9,96,91,83,30.30,29.68,24,9,33,2.73
2013-1-14,29.1,25.9,22.3,23.0,20.9,17.6,87,81,75,30.43,30.30,15,7,21,0.00
2013-1-15,31.8,27.4,22.7,28.4,23.8,20.1,93,86,73,30.33,30.08,12,6,20,0.00
2013-1-16,32.2,30.5,28.7,28.6,27.3,26.1,93,88,82,30.17,30.05,8,2,12,0.00
2013-1-17,45.2,34.9,26.2,36.4,29.0,24.2,93,80,68,30.48,30.11,17,5,28,0.03
2013-1-18,49.2,36.4,23.6,33.7,27.6,21.4,93,71,52,30.56,30.31,6,2,10,0.00
2013-1-19,58.4,45.1,34.5,37.9,33.3,27.4,79,64,44,30.31,30.09,16,5,25,0.00
2013-1-20,49.7,41.4,31.7,35.1,28.6,17.6,89,62,42,30.28,30.13,10,3,16,0.00
2013-1-21,35.3,29.6,26.0,20.7,17.3,12.8,73,61,45,30.36,30.21,12,4,21,0.00
2013-1-22,31.0,25.1,19.5,13.3,8.2,3.6,60,48,37,30.46,30.33,10,3,15,0.00
2013-1-23,51.3,35.6,20.6,36.4,23.9,9.7,82,63,49,30.37,30.14,9,2,13,0.00
2013-1-24,38.3,31.9,25.7,33.3,17.5,10.4,82,56,44,30.51,30.23,16,6,23,0.00
2013-1-25,38.2,33.0,28.0,30.5,25.4,14.4,92,75,46,30.24,30.08,9,2,18,0.02
2013-1-26,49.4,36.8,26.6,31.8,27.7,24.8,94,72,45,30.36,30.24,7,2,12,0.00
2013-1-27,53.7,44.4,32.9,47.0,38.3,27.0,89,79,72,30.30,30.09,8,3,13,0.02
2013-1-28,64.7,58.8,53.7,60.3,54.5,47.0,92,86,76,30.11,30.01,10,5,17,0.03
2013-1-29,71.2,63.6,53.5,63.1,58.9,52.4,96,85,72,30.02,29.42,17,7,30,0.91
2013-1-30,56.9,47.1,34.0,52.7,41.6,23.3,97,81,64,29.97,29.45,18,8,31,0.90
2013-1-31,45.5,35.4,24.8,34.1,25.5,12.1,94,68,51,30.33,29.96,17,7,29,0.02
2013-2-1,30.5,23.0,15.9,17.2,11.5,6.5,71,61,47,30.56,30.32,12,4,21,0.00
2013-2-2,44.9,34.6,24.8,34.4,26.2,16.8,92,72,56,30.32,30.10,10,3,17,0.02
2013-2-3,48.3,40.5,31.4,34.2,29.0,23.7,91,65,45,30.15,30.02,10,4,28,0.00
2013-2-4,49.8,41.3,32.1,40.9,34.1,24.0,91,76,50,30.09,29.88,9,3,16,0.08
2013-2-5,55.6,45.2,38.4,46.6,40.8,36.8,95,85,66,30.06,29.91,7,1,9,0.00
2013-2-6,56.8,45.0,33.2,37.5,34.3,31.4,97,69,44,30.23,30.06,9,2,14,0.00
2013-2-7,66.6,54.4,41.2,54.1,44.0,32.5,94,68,57,30.06,29.84,8,2,13,0.11
2013-2-8,54.4,41.4,35.1,52.1,35.7,28.9,92,80,70,30.34,29.89,15,8,28,0.01
2013-2-9,50.8,41.0,32.5,34.2,30.9,27.3,82,68,50,30.36,30.04,9,2,15,0.00
2013-2-10,56.7,52.6,47.2,54.4,45.8,34.3,94,79,57,30.04,29.70,14,6,24,0.53
2013-2-11,55.5,46.9,38.6,51.7,34.2,29.4,87,62,41,30.14,29.88,8,3,18,0.00
2013-2-12,49.0,42.0,29.8,36.3,33.4,27.7,94,73,54,30.14,29.82,8,2,13,0.00
2013-2-13,45.2,39.9,36.7,39.7,36.4,34.9,93,87,76,29.96,29.78,10,5,18,0.18
2013-2-14,59.6,46.5,35.1,43.9,38.6,33.5,95,76,52,30.01,29.93,10,4,15,0.01
2013-2-15,47.9,41.9,28.7,39.2,28.8,18.0,77,60,44,30.21,30.01,15,5,22,0.00
2013-2-16,37.5,30.5,25.7,21.6,17.4,10.4,78,59,33,30.24,30.17,13,4,21,0.00
2013-2-17,50.6,38.0,24.6,28.3,24.1,17.2,76,59,38,30.25,30.05,8,3,13,0.00
2013-2-18,60.4,48.7,39.8,47.7,40.1,27.8,94,73,51,30.05,29.72,16,8,28,0.83
2013-2-19,46.1,39.4,32.8,40.4,24.7,15.2,83,57,36,30.27,29.88,12,5,21,0.00
2013-2-20,33.9,29.6,25.3,19.9,16.0,12.2,69,57,48,30.38,30.23,8,4,14,0.00
2013-2-21,39.9,33.1,28.1,38.6,27.5,20.0,95,80,61,30.26,29.79,10,4,20,1.23
2013-2-22,41.3,38.2,33.2,40.0,35.6,28.6,96,90,80,30.07,29.82,9,4,14,0.00
2013-2-23,45.5,35.6,28.6,31.2,27.7,25.2,88,74,52,30.06,29.96,7,2,12,0.00
2013-2-24,54.9,40.6,27.5,30.2,27.7,24.1,91,63,37,30.13,29.96,6,2,12,0.00
2013-2-25,60.8,49.6,37.5,48.1,31.7,26.9,93,52,31,29.98,29.36,10,5,21,0.41
2013-2-26,51.7,44.8,38.5,49.6,41.3,34.3,94,87,77,29.72,29.30,15,9,24,0.40
2013-2-27,40.2,38.6,36.9,34.7,32.4,29.8,85,78,70,29.91,29.72,10,6,21,0.00
2013-2-28,39.9,36.4,33.7,32.7,30.0,27.1,93,78,68,30.09,29.90,9,4,16,0.01
2013-3-1,36.7,33.3,31.8,34.6,31.2,29.6,94,92,86,30.12,30.05,8,4,15,0.05
2013-3-2,34.1,31.2,30.1,30.1,26.1,18.5,93,82,57,30.22,30.11,13,7,22,0.00
2013-3-3,44.3,34.2,23.9,27.2,22.0,18.3,84,62,39,30.22,30.07,6,2,12,0.00
2013-3-4,60.6,49.4,37.2,46.4,32.1,23.7,85,52,38,30.08,29.72,10,4,17,0.10
2013-3-5,50.2,42.8,34.9,48.3,36.3,19.6,95,79,50,30.11,29.72,18,8,38,0.21
2013-3-6,40.7,35.6,31.7,28.6,26.0,23.7,82,68,60,30.33,30.10,16,7,27,0.00
2013-3-7,49.9,37.6,27.9,32.1,28.4,24.2,86,71,49,30.40,30.30,9,2,12,0.00
2013-3-8,61.7,44.6,29.9,34.1,29.7,26.4,87,60,29,30.42,30.21,8,2,14,0.00
2013-3-9,68.8,56.5,46.1,39.6,34.6,30.0,61,45,31,30.20,29.91,9,4,17,0.00
2013-3-10,65.8,57.6,50.1,54.5,46.8,38.6,97,70,48,29.91,29.70,14,6,26,0.66
2013-3-11,52.1,41.7,36.9,50.3,35.6,29.7,95,79,70,30.01,29.74,13,5,20,0.00
2013-3-12,53.1,40.7,27.4,34.4,29.1,20.9,94,66,37,30.17,30.00,9,2,17,0.00
2013-3-13,45.1,39.3,33.3,30.5,23.5,20.7,67,54,38,30.40,30.17,16,6,22,0.00
2013-3-14,53.7,40.2,24.7,31.4,26.1,20.5,88,60,38,30.42,30.12,7,2,14,0.00
2013-3-15,76.5,59.7,42.3,53.6,44.4,30.8,76,59,42,30.12,29.79,14,6,20,0.00
2013-3-16,75.3,62.8,49.6,55.0,48.8,41.5,74,61,47,29.92,29.75,16,8,25,0.00
2013-3-17,49.3,44.7,40.8,46.2,41.2,37.8,94,88,74,29.98,29.66,10,5,20,0.14
2013-3-18,54.0,47.3,38.6,48.0,43.9,37.0,97,88,74,30.00,29.63,14,3,29,0.75
2013-3-19,52.1,44.0,34.4,37.6,27.2,20.1,96,57,30,30.20,30.00,10,3,18,0.01
2013-3-20,49.7,40.6,31.2,33.5,27.4,20.1,75,60,43,30.22,30.05,14,5,22,0.00
2013-3-21,44.6,34.2,21.6,28.1,18.6,12.3,84,55,33,30.11,29.96,7,2,12,0.00
2013-3-22,46.8,40.9,36.0,30.5,27.4,23.6,74,59,49,30.01,29.91,8,3,12,0.00
2013-3-23,56.0,47.5,42.1,45.0,37.4,29.6,92,69,57,29.97,29.68,9,4,16,0.11
2013-3-24,48.8,42.7,35.1,45.9,39.0,28.0,95,87,72,29.83,29.47,18,8,32,0.21
2013-3-25,39.1,35.3,31.6,29.5,27.0,24.4,91,72,61,30.18,29.83,13,7,22,0.00
2013-3-26,43.7,36.1,29.6,31.0,27.3,23.7,90,72,50,30.34,30.19,9,4,17,0.00
2013-3-27,54.7,42.0,26.8,32.0,27.4,22.8,87,59,33,30.40,30.30,7,1,12,0.00
2013-3-28,64.4,51.7,40.4,35.5,33.3,30.0,78,52,31,30.35,30.22,5,1,9,0.00
2013-3-29,58.4,50.8,45.3,48.0,42.3,34.2,95,74,50,30.25,30.15,7,2,12,0.11
2013-3-30,52.8,46.9,39.9,52.0,45.4,38.9,97,95,85,30.18,29.91,7,2,10,0.19
2013-3-31,64.9,55.5,48.1,54.7,50.8,45.3,98,86,56,29.95,29.85,7,1,14,0.07
2013-4-1,58.2,50.7,44.4,46.5,38.6,28.1,96,65,44,30.15,29.89,13,5,18,0.00
2013-4-2,44.6,42.3,40.6,32.6,27.9,22.8,68,57,43,30.29,30.14,8,3,14,0.01
2013-4-3,55.1,45.9,35.2,28.1,24.5,21.7,63,45,28,30.30,30.15,13,5,22,0.00
2013-4-4,47.3,44.6,39.2,43.9,36.3,25.7,92,75,45,30.15,29.99,6,2,12,0.30
2013-4-5,70.2,54.4,36.7,43.4,38.4,34.7,96,60,30,30.14,30.03,8,2,16,0.00
2013-4-6,74.8,60.2,43.9,47.2,42.6,39.2,89,55,32,30.07,29.87,13,4,21,0.00
2013-4-7,72.9,63.6,56.2,58.6,52.4,40.8,76,67,56,29.98,29.90,12,4,20,0.00
2013-4-8,76.5,68.0,60.0,60.3,56.3,50.9,78,67,54,29.92,29.83,14,5,24,0.00
2013-4-9,80.5,72.1,64.6,67.1,62.7,56.2,82,73,62,29.98,29.84,10,5,20,0.00
2013-4-10,83.8,75.8,68.5,69.5,65.4,62.5,87,71,55,29.91,29.64,13,6,22,0.11
2013-4-11,67.3,54.4,44.2,64.5,52.2,41.5,96,92,83,29.76,29.62,10,3,17,2.72
2013-4-12,62.6,50.9,38.3,44.0,39.3,35.4,92,67,42,30.01,29.76,14,4,25,0.00
2013-4-13,68.6,54.0,36.5,46.4,39.3,33.3,89,60,38,30.09,29.92,8,2,13,0.00
2013-4-14,74.1,62.7,51.4,57.4,48.6,41.6,72,61,45,29.92,29.73,12,4,22,0.00
2013-4-15,82.0,69.4,57.1,65.3,58.8,52.7,86,70,50,29.90,29.79,9,4,15,0.00
2013-4-16,84.1,73.2,66.5,73.4,67.7,61.1,94,83,65,30.01,29.87,10,3,17,0.21
2013-4-17,85.8,76.5,67.8,73.2,68.6,65.9,94,78,61,30.04,29.81,8,3,14,0.00
2013-4-18,80.3,70.9,45.8,67.7,62.9,44.4,96,77,58,29.81,29.57,14,7,27,1.76
2013-4-19,52.3,45.4,42.2,44.5,34.9,30.9,95,67,49,30.09,29.73,12,5,20,0.00
2013-4-20,63.2,51.1,36.3,41.7,35.6,32.5,91,59,35,30.28,30.09,6,1,13,0.00
2013-4-21,67.5,55.5,42.2,39.0,35.3,29.6,73,49,26,30.37,30.21,10,3,18,0.00
2013-4-22,75.9,61.2,44.5,53.0,44.7,34.3,78,56,37,30.22,30.00,7,2,12,0.00
2013-4-23,74.5,64.7,53.8,61.9,55.4,46.4,85,72,59,30.04,29.84,12,4,18,0.00
2013-4-24,65.4,46.8,39.2,58.4,40.4,35.8,93,79,55,30.27,29.84,14,6,23,0.39
2013-4-25,69.2,51.8,34.3,45.2,39.0,33.3,96,67,31,30.37,30.26,5,1,13,0.00
2013-4-26,53.4,50.8,47.3,49.5,46.8,42.3,95,86,77,30.41,30.21,6,1,12,0.60
2013-4-27,60.4,55.7,50.4,58.9,54.5,49.1,98,96,91,30.27,29.87,10,2,23,1.90
2013-4-28,63.1,58.0,52.0,58.2,53.9,50.6,98,87,73,29.95,29.88,6,2,12,0.01
2013-4-29,76.5,62.7,46.4,62.0,55.3,45.6,98,79,56,29.99,29.85,6,1,10,0.00
2013-4-30,85.3,70.4,56.0,61.4,56.6,53.2,92,65,36,29.95,29.86,0,0,0,0.00
2013-5-1,85.2,71.8,61.0,66.2,60.4,53.7,83,68,47,30.04,29.94,0,0,0,0.00
2013-5-2,79.1,68.0,58.2,63.3,59.2,55.0,91,75,54,30.10,29.99,0,0,0,0.06
2013-5-3,69.7,55.6,42.1,62.1,52.3,40.5,95,89,70,29.99,29.79,9,2,17,1.80
2013-5-4,57.7,47.8,37.1,43.8,39.5,34.5,95,74,52,29.95,29.86,6,2,13,0.01
2013-5-5,60.1,52.3,44.4,51.4,46.8,42.1,94,82,68,29.92,29.82,10,3,16,0.00
2013-5-6,64.5,57.8,53.2,58.2,54.2,51.4,94,88,76,29.91,29.80,10,4,18,0.03
2013-5-7,76.3,63.8,53.2,60.7,57.0,52.1,97,80,53,29.99,29.89,5,1,12,0.00
2013-5-8,82.7,69.6,55.3,61.2,57.5,53.6,95,69,40,30.03,29.95,7,1,12,0.00
2013-5-9,81.3,71.7,61.6,66.3,61.7,58.0,89,72,54,30.02,29.89,10,2,18,0.00
2013-5-10,78.8,68.4,62.7,66.0,62.5,57.8,96,82,59,29.93,29.82,8,2,22,0.48
2013-5-11,74.5,64.1,58.0,59.1,53.1,41.7,87,69,45,30.09,29.92,10,4,20,0.02
2013-5-12,66.1,56.7,44.8,42.5,35.6,26.3,82,48,27,30.20,30.09,12,3,18,0.00
2013-5-13,75.3,60.4,42.3,48.2,41.8,32.8,94,56,25,30.25,30.10,6,1,13,0.00
2013-5-14,85.2,71.7,56.7,62.9,56.9,47.1,81,61,44,30.10,29.92,10,4,18,0.00
2013-5-15,84.0,75.8,67.5,64.0,56.3,49.0,68,52,33,30.03,29.89,9,4,18,0.00
2013-5-16,85.1,72.4,66.4,66.6,61.4,56.1,80,69,50,29.97,29.87,6,1,12,0.00
2013-5-17,77.4,68.8,64.1,69.1,64.4,59.9,96,86,71,29.94,29.86,6,2,14,1.31
2013-5-18,88.0,73.8,63.4,71.1,66.5,62.7,98,80,53,29.98,29.87,3,1,8,0.00
2013-5-19,89.1,80.2,71.9,74.4,71.0,67.6,96,75,52,29.91,29.80,8,2,13,0.00
2013-5-20,88.4,79.4,70.2,73.7,70.5,68.0,93,75,57,29.91,29.77,8,2,16,0.00
2013-5-21,79.0,69.5,65.0,71.6,66.2,63.1,97,90,73,29.95,29.76,12,2,28,2.76
2013-5-22,79.3,70.8,64.0,66.7,63.6,61.4,97,79,56,29.83,29.68,7,3,16,0.14
2013-5-23,78.1,69.7,59.5,62.4,58.3,52.5,91,68,50,30.11,29.83,14,4,20,0.00
2013-5-24,73.7,61.9,50.9,51.9,48.1,44.9,86,63,38,30.33,30.12,10,4,20,0.00
2013-5-25,82.4,67.1,49.3,55.0,50.6,47.0,93,59,31,30.31,30.10,5,1,8,0.00
2013-5-26,86.8,72.6,57.5,63.3,58.3,54.0,90,64,40,30.17,30.04,5,1,9,0.00
2013-5-27,85.9,75.5,63.1,70.6,62.6,57.3,82,65,48,30.06,29.90,8,2,16,0.00
2013-5-28,88.8,78.5,69.7,71.6,65.6,59.8,86,66,44,30.00,29.90,6,3,16,0.00
2013-5-29,89.5,78.5,64.8,68.6,63.9,58.2,80,62,43,30.02,29.88,6,1,17,0.00
2013-5-30,87.7,78.3,69.6,71.2,68.6,65.4,92,73,56,29.98,29.86,12,3,23,0.03
2013-5-31,84.3,75.5,66.0,75.1,70.6,64.3,96,85,72,29.95,29.81,7,3,15,0.91
2013-6-1,77.9,70.5,64.3,72.6,67.2,62.6,96,89,77,29.94,29.77,10,2,25,1.48
2013-6-2,78.0,71.1,65.6,66.2,62.8,59.8,97,76,55,29.94,29.87,8,3,14,0.00
2013-6-3,78.8,68.9,60.7,61.2,59.1,57.0,92,72,48,30.02,29.91,8,3,12,0.00
2013-6-4,85.4,72.2,58.3,63.9,59.7,54.8,88,67,45,30.02,29.92,6,1,10,0.00
2013-6-5,88.9,77.6,67.4,70.4,65.9,61.6,89,69,49,29.94,29.76,3,1,8,0.02
2013-6-6,82.9,75.0,67.0,68.5,65.9,63.1,96,75,52,29.80,29.72,9,3,16,0.16
2013-6-7,81.4,73.2,67.4,64.0,60.3,55.6,78,65,42,29.86,29.75,9,4,17,0.00
2013-6-8,84.6,73.5,59.8,64.8,59.0,53.2,95,64,37,29.96,29.84,5,1,9,0.00
2013-6-9,85.0,71.6,65.5,72.0,65.4,58.1,96,81,62,29.96,29.79,6,1,16,0.29
2013-6-10,88.7,76.5,65.4,72.1,66.2,63.0,98,74,43,29.88,29.80,8,2,21,0.01
2013-6-11,96.2,83.4,67.2,77.2,71.7,64.8,92,69,48,29.96,29.88,6,1,13,0.00
2013-6-12,95.5,85.6,73.6,77.1,73.9,70.6,91,70,51,29.98,29.81,8,3,20,0.00
2013-6-13,87.5,81.3,69.8,74.6,69.5,65.4,88,68,54,29.92,29.80,14,6,23,0.00
2013-6-14,85.1,75.6,62.7,66.2,60.9,57.9,91,63,41,30.03,29.90,9,3,16,0.00
2013-6-15,90.6,77.9,63.1,66.8,63.5,59.2,94,64,37,30.06,29.93,5,1,9,0.00
2013-6-16,91.6,79.7,71.0,72.5,69.3,66.3,87,72,50,29.99,29.89,6,1,12,0.00
2013-6-17,88.2,76.6,68.1,75.3,71.1,66.0,94,84,61,29.92,29.83,10,2,20,0.16
2013-6-18,86.3,76.1,67.6,70.4,67.0,64.9,94,75,55,29.93,29.80,9,4,16,0.00
2013-6-19,91.4,79.2,66.7,72.8,68.0,64.2,93,71,45,30.01,29.91,16,2,22,0.18
2013-6-20,94.8,82.4,69.0,72.5,69.7,67.3,95,68,43,30.09,30.00,5,1,8,0.00
2013-6-21,93.8,82.8,71.5,73.4,70.4,68.6,91,68,46,30.12,30.02,5,1,10,0.00
2013-6-22,92.7,82.0,71.0,72.3,69.2,64.1,92,67,45,30.11,29.99,9,2,26,0.00
2013-6-23,91.5,81.2,69.6,71.9,68.0,64.1,85,66,45,30.07,29.96,5,1,12,0.00
2013-6-24,95.6,83.8,72.9,75.5,71.8,69.2,89,69,45,30.08,29.96,5,1,10,0.00
2013-6-25,93.5,83.2,74.9,76.9,73.6,70.9,91,74,53,30.01,29.86,9,2,15,0.01
2013-6-26,93.3,83.5,73.2,76.3,72.3,69.4,88,70,50,29.91,29.74,9,3,16,0.00
2013-6-27,99.2,87.1,75.0,76.1,70.9,64.4,90,62,34,29.83,29.75,9,3,17,0.00
2013-6-28,94.1,81.6,72.8,75.3,68.4,59.5,90,67,36,29.81,29.64,9,2,20,0.01
2013-6-29,89.8,78.7,67.0,63.8,61.1,58.6,78,57,37,29.71,29.60,15,4,30,0.00
2013-6-30,76.8,68.9,63.5,68.1,63.5,60.0,93,83,64,29.80,29.66,9,3,18,0.12
2013-7-1,74.0,68.5,66.7,67.0,65.2,63.7,94,90,75,29.88,29.77,10,4,20,0.55
2013-7-2,77.5,69.9,64.2,66.8,63.9,60.7,96,82,64,30.00,29.85,8,2,15,0.00
2013-7-3,84.8,70.9,59.4,65.9,62.2,58.3,97,76,50,30.08,29.99,5,1,9,0.00
2013-7-4,87.0,75.4,65.3,71.4,67.2,62.8,94,77,58,30.04,29.95,8,2,20,0.00
2013-7-5,86.9,75.8,66.3,70.3,68.2,65.1,97,79,55,30.05,29.95,6,1,13,0.00
2013-7-6,90.2,75.3,67.4,73.0,68.8,63.8,94,82,51,30.04,29.93,7,1,16,0.20
2013-7-7,92.4,79.0,66.9,75.4,70.2,65.2,97,77,50,30.06,29.99,3,1,7,0.01
2013-7-8,94.4,82.0,70.8,77.3,73.2,69.6,97,77,52,30.10,30.01,3,1,9,0.00
2013-7-9,94.9,84.6,73.8,78.4,74.5,71.9,94,73,52,30.07,29.94,5,1,12,0.00
2013-7-10,93.5,84.3,76.1,78.2,73.8,70.4,89,72,49,29.97,29.84,7,2,14,0.00
2013-7-11,89.0,81.5,72.0,75.0,69.0,60.8,92,68,47,29.96,29.88,10,4,18,0.00
2013-7-12,85.8,75.8,65.6,66.3,61.1,57.5,80,62,39,30.02,29.95,10,4,20,0.00
2013-7-13,87.4,76.3,62.2,64.3,61.3,58.9,90,62,40,30.01,29.94,9,2,15,0.00
2013-7-14,88.6,76.3,69.3,74.4,69.5,62.2,95,80,58,30.07,29.97,6,1,12,0.35
2013-7-15,92.2,80.6,72.3,77.2,73.2,70.4,96,80,57,30.18,30.07,5,1,12,0.00
2013-7-16,95.1,83.9,72.5,75.3,72.4,69.4,91,70,50,30.25,30.17,3,0,7,0.00
2013-7-17,96.9,85.9,74.0,76.2,73.5,71.2,91,68,47,30.27,30.13,6,1,12,0.00
2013-7-18,95.6,80.4,73.3,78.3,73.8,69.1,93,81,53,30.16,30.01,6,1,29,0.54
2013-7-19,92.0,80.3,69.3,77.2,72.9,68.4,98,80,56,30.04,29.89,3,1,8,0.01
2013-7-20,92.0,81.7,71.7,76.5,73.2,68.4,96,77,58,29.93,29.78,6,0,12,0.22
2013-7-21,91.1,76.9,71.5,77.2,72.4,69.8,96,87,60,29.92,29.83,0,0,0,0.31
2013-7-22,89.3,77.8,71.6,79.1,73.4,70.4,97,87,68,29.88,29.78,0,0,0,0.49
2013-7-23,90.5,78.6,71.0,77.5,72.1,67.4,94,82,52,29.89,29.76,10,2,26,0.10
2013-7-24,84.0,76.3,69.5,72.4,68.1,62.6,94,77,58,29.95,29.80,9,3,16,0.00
2013-7-25,83.1,73.2,63.1,64.3,61.4,59.2,87,68,46,30.04,29.94,8,3,14,0.00
2013-7-26,85.2,73.6,60.5,68.5,64.4,58.8,94,75,52,30.03,29.91,5,1,8,0.00
2013-7-27,86.3,76.0,68.9,70.9,67.4,59.9,95,76,53,29.97,29.84,7,2,15,0.00
2013-7-28,80.0,70.1,58.3,62.2,57.9,52.7,89,67,42,30.04,29.93,5,1,7,0.00
2013-7-29,78.9,70.0,62.5,66.0,62.8,59.9,93,79,60,30.14,30.03,3,1,8,0.00
2013-7-30,73.8,70.9,67.4,72.0,67.6,62.5,96,89,79,30.11,29.98,5,1,12,0.41
2013-7-31,87.2,78.3,70.9,78.7,73.4,69.7,97,86,67,30.00,29.89,10,2,16,0.07
2013-8-1,86.1,77.1,69.3,71.5,68.8,66.9,94,77,55,30.03,29.94,9,3,14,0.00
2013-8-2,89.2,76.7,63.8,71.7,68.1,62.6,97,77,49,30.00,29.91,5,1,9,0.00
2013-8-3,83.7,76.5,71.9,75.4,72.1,68.4,97,87,71,30.03,29.88,9,1,15,0.97
2013-8-4,84.8,77.7,71.3,73.7,68.4,64.3,97,75,52,30.09,30.00,7,3,13,0.01
2013-8-5,75.8,72.4,69.0,71.7,67.0,62.6,94,83,71,30.05,29.89,5,1,9,0.17
2013-8-6,84.6,76.3,71.4,76.3,72.8,70.0,97,90,73,29.93,29.84,3,1,7,0.09
2013-8-7,90.8,78.8,73.0,78.8,74.3,71.6,97,87,60,29.93,29.81,10,1,17,0.74
2013-8-8,86.5,78.9,74.2,79.2,75.4,71.2,98,89,76,29.92,29.83,8,1,13,0.29
2013-8-9,90.4,80.4,72.8,78.0,74.3,70.7,95,83,64,29.99,29.87,3,0,9,0.01
2013-8-10,83.6,76.5,72.1,76.0,73.6,70.9,98,91,75,30.08,29.96,9,1,21,1.68
2013-8-11,87.8,79.6,73.2,78.4,75.2,72.3,98,87,71,30.09,29.99,3,0,6,0.00
2013-8-12,88.5,77.2,72.4,79.9,74.4,70.7,97,91,75,30.03,29.86,12,1,21,1.62
2013-8-13,83.6,77.1,70.3,73.5,70.5,64.7,97,81,55,29.99,29.89,9,3,15,0.00
2013-8-14,76.2,68.4,60.3,64.9,57.0,53.8,88,68,49,30.10,29.99,12,5,20,0.00
2013-8-15,80.5,68.3,56.9,59.9,56.8,53.4,88,69,46,30.08,29.99,8,3,20,0.00
2013-8-16,77.6,69.5,60.9,68.7,63.1,57.4,89,80,72,30.05,29.99,6,2,10,0.00
2013-8-17,80.6,70.3,65.5,70.5,66.4,63.7,96,88,66,30.09,30.01,8,2,15,0.67
2013-8-18,85.6,72.9,64.8,69.7,67.3,64.0,98,84,56,30.11,30.02,5,1,9,0.00
2013-8-19,87.7,75.3,64.1,71.5,67.8,63.2,98,80,54,30.08,29.98,7,1,10,0.00
2013-8-20,89.4,78.2,66.2,75.0,70.4,65.3,98,79,54,30.07,29.99,3,1,8,0.00
2013-8-21,92.5,79.9,68.1,76.9,71.7,67.2,98,78,50,30.10,30.01,3,1,7,0.00
2013-8-22,93.8,81.5,70.9,78.0,72.9,68.9,97,78,48,30.10,29.97,5,1,8,0.00
2013-8-23,92.8,78.8,70.8,77.3,72.7,68.9,98,84,51,30.04,29.95,20,1,35,0.42
2013-8-24,92.1,80.5,69.4,76.1,71.9,68.8,98,77,51,30.13,30.02,6,2,15,0.01
2013-8-25,90.5,79.9,71.1,77.0,72.9,68.1,93,80,61,30.23,30.13,5,1,10,0.00
2013-8-26,90.2,79.1,70.2,76.3,72.9,68.9,96,82,62,30.22,30.08,3,1,8,0.00
2013-8-27,90.0,78.8,67.7,74.8,71.3,66.2,96,79,58,30.10,30.00,5,1,9,0.00
2013-8-28,95.1,81.2,69.5,75.2,71.4,68.3,96,75,46,30.04,29.96,3,1,10,0.00
2013-8-29,96.5,83.7,71.3,76.9,72.8,68.6,92,72,45,30.01,29.92,6,1,12,0.00
2013-8-30,97.0,84.3,72.6,77.6,74.3,70.8,96,74,49,29.95,29.83,5,1,10,0.00
2013-8-31,95.8,84.9,74.4,79.3,75.3,71.9,93,75,53,29.86,29.74,5,1,9,0.00
2013-9-1,81.0,75.4,69.9,74.2,71.9,68.5,97,89,79,29.92,29.74,8,1,20,2.01
2013-9-2,89.5,79.1,69.6,78.5,72.0,66.6,98,80,58,29.88,29.79,9,2,16,0.00
2013-9-3,85.6,75.7,67.1,68.5,65.1,62.7,90,71,48,30.00,29.88,7,2,15,0.00
2013-9-4,84.2,73.5,62.2,67.5,63.7,60.8,96,74,49,30.11,30.00,7,1,12,0.00
2013-9-5,86.3,72.5,59.7,67.4,63.9,58.6,96,77,48,30.16,30.08,8,1,13,0.00
2013-9-6,91.0,76.6,63.8,70.8,67.3,62.6,97,76,49,30.13,30.01,3,1,7,0.00
2013-9-7,92.5,77.9,63.8,73.4,68.7,62.7,97,76,47,30.04,29.92,5,1,12,0.00
2013-9-8,96.3,81.3,68.7,76.2,72.2,67.5,97,76,45,29.95,29.85,3,0,7,0.00
2013-9-9,94.1,83.2,74.2,77.5,74.1,71.0,91,76,55,29.98,29.89,6,1,9,0.00
2013-9-10,97.4,82.7,74.4,78.7,73.6,70.9,89,76,47,30.09,29.98,3,1,8,0.00
2013-9-11,94.9,80.2,70.3,78.2,73.1,69.3,97,81,53,30.12,30.02,5,1,13,0.00
2013-9-12,91.9,80.7,72.6,76.5,72.7,65.0,96,78,57,30.02,29.89,9,2,14,0.00
2013-9-13,78.3,70.4,61.4,65.3,57.2,53.7,78,64,44,30.01,29.94,10,5,20,0.00
2013-9-14,75.9,62.5,53.5,53.5,51.0,48.4,87,69,39,30.10,30.01,9,3,20,0.00
2013-9-15,84.3,74.0,56.7,62.0,58.5,54.4,92,61,39,30.08,30.02,5,1,9,0.00
2013-9-16,80.8,70.0,60.2,67.6,62.9,57.4,92,79,63,30.14,30.04,9,2,15,0.00
2013-9-17,86.9,74.0,64.9,69.3,65.8,62.5,92,77,55,30.15,30.03,5,1,9,0.00
2013-9-18,88.7,76.5,68.1,74.5,70.1,65.7,93,82,62,30.08,29.98,5,1,12,0.00
2013-9-19,89.8,77.6,69.6,75.1,70.6,67.6,94,80,57,30.06,29.91,5,1,11,0.00
2013-9-20,80.6,72.6,68.6,72.9,69.1,66.3,96,89,75,29.93,29.79,6,2,12,1.34
2013-9-21,73.8,67.0,56.8,67.6,56.6,51.5,96,71,47,29.89,29.78,10,5,21,0.06
2013-9-22,77.8,65.2,52.4,56.1,53.2,49.7,92,67,44,29.95,29.86,9,2,15,0.00
2013-9-23,82.0,66.9,52.6,62.3,56.9,50.3,93,72,48,29.97,29.87,5,1,14,0.00
2013-9-24,74.2,67.0,57.6,69.1,63.8,56.1,96,90,84,29.91,29.78,5,1,13,0.11
2013-9-25,79.0,71.1,65.5,71.1,67.3,64.2,97,88,71,29.83,29.75,6,1,12,0.03
2013-9-26,86.4,72.4,59.5,69.1,64.7,58.6,98,79,51,29.97,29.82,5,1,12,0.01
2013-9-27,85.9,72.3,59.6,65.0,62.2,58.5,97,74,45,30.07,29.97,6,1,9,0.00
2013-9-28,83.8,72.0,62.8,64.1,61.5,58.6,95,72,44,30.10,29.98,7,1,13,0.00
2013-9-29,67.2,64.5,62.5,63.6,61.8,59.9,97,91,78,30.02,29.94,3,1,9,0.94
2013-9-30,68.8,66.2,64.4,65.7,64.4,63.5,97,94,88,29.97,29.91,3,1,9,0.03
2013-10-1,78.4,70.0,64.5,72.9,67.8,63.3,98,93,83,30.03,29.94,3,0,6,0.20
2013-10-2,84.3,73.0,67.3,73.5,69.4,66.7,98,89,63,30.06,29.99,6,1,12,0.03
2013-10-3,86.9,75.4,66.2,70.5,68.3,65.0,97,80,56,30.03,29.91,6,1,12,0.00
2013-10-4,88.0,76.2,67.1,74.3,70.2,65.9,96,83,58,30.02,29.92,5,1,14,0.00
2013-10-5,86.3,75.5,67.9,74.5,71.2,67.0,97,87,64,29.98,29.81,20,2,28,0.94
2013-10-6,69.9,61.8,53.1,66.9,53.6,46.2,98,76,47,29.95,29.81,9,2,18,0.65
2013-10-7,67.4,56.6,46.3,51.2,48.1,44.9,96,75,51,30.11,29.91,10,2,14,0.00
2013-10-8,73.0,62.2,49.3,51.6,48.1,44.8,94,63,38,30.16,30.06,9,2,17,0.00
2013-10-9,81.7,64.8,50.8,65.9,58.2,48.0,94,80,56,30.13,30.04,3,0,9,0.00
2013-10-10,82.8,68.3,56.9,65.7,61.3,56.1,98,80,50,30.13,29.98,3,0,7,0.00
2013-10-11,84.0,68.4,56.1,65.4,60.0,55.3,97,77,46,30.03,29.93,3,1,8,0.00
2013-10-12,76.6,66.6,57.3,69.3,63.1,55.9,97,89,73,30.10,29.96,5,1,7,0.14
2013-10-13,77.5,67.3,59.8,63.9,57.2,48.0,98,72,46,30.25,30.10,10,4,17,0.00
2013-10-14,81.6,66.2,51.9,63.8,55.9,47.1,85,70,52,30.23,30.05,5,1,9,0.00
2013-10-15,71.1,66.8,64.9,66.5,63.8,61.5,96,90,78,30.04,29.89,5,1,12,0.20
2013-10-16,66.2,59.9,55.6,65.3,55.9,52.5,97,87,74,30.00,29.90,7,2,16,0.22
2013-10-17,65.7,56.0,48.1,54.0,49.9,46.7,95,81,56,29.99,29.92,6,2,12,0.04
2013-10-18,72.0,57.1,44.3,55.0,49.1,43.5,97,78,44,30.05,29.91,2,0,9,0.01
2013-10-19,58.6,50.9,42.2,53.5,45.3,40.3,96,82,56,30.05,29.88,10,2,23,0.08
2013-10-20,66.7,51.1,39.1,47.2,42.4,38.0,97,76,41,30.08,29.97,7,1,12,0.01
2013-10-21,68.9,55.1,41.4,53.4,47.3,39.8,96,77,51,30.02,29.94,8,2,14,0.11
2013-10-22,63.8,53.9,42.8,51.4,42.9,37.6,93,69,42,30.05,29.84,9,2,18,0.00
2013-10-23,55.9,48.4,42.7,47.2,38.8,34.7,86,71,47,30.12,29.90,9,4,21,0.00
2013-10-24,52.9,47.1,37.5,44.2,36.8,28.4,90,69,42,30.38,30.09,13,3,20,0.00
2013-10-25,55.4,40.2,28.2,31.9,29.1,26.2,93,68,35,30.52,30.31,9,1,13,0.00
2013-10-26,62.0,47.0,31.8,48.1,38.7,29.9,94,75,52,30.30,30.05,6,1,14,0.00
2013-10-27,63.0,53.5,45.7,52.5,47.4,41.5,92,80,66,30.09,30.00,3,1,8,0.00
2013-10-28,72.6,59.1,50.5,55.7,52.3,48.9,95,80,51,30.21,30.02,3,0,7,0.00
2013-10-29,67.5,58.9,47.1,63.1,56.1,45.9,97,91,81,30.23,30.08,6,0,12,0.01
2013-10-30,76.6,68.5,63.7,66.9,63.3,61.0,93,84,70,30.12,29.94,7,2,12,0.00
2013-10-31,70.2,65.9,58.5,66.2,63.0,56.2,94,91,78,29.93,29.47,15,5,27,0.47
2013-11-1,70.6,58.2,47.6,55.6,49.3,45.1,97,75,42,29.84,29.67,7,2,16,0.01
2013-11-2,58.2,50.4,39.6,45.4,42.8,37.4,92,76,55,30.18,29.84,9,3,20,0.00
2013-11-3,61.9,47.1,34.1,43.5,37.0,33.1,96,72,38,30.30,30.17,5,1,10,0.00
2013-11-4,61.0,52.8,43.0,47.3,43.0,37.0,82,70,54,30.28,30.18,6,1,12,0.00
2013-11-5,68.7,58.9,52.2,53.4,47.5,43.4,78,67,51,30.31,30.11,5,1,12,0.00
2013-11-6,59.1,54.6,43.6,57.1,49.8,40.0,96,85,66,30.22,30.00,15,5,27,0.43
2013-11-7,53.7,43.6,36.0,39.7,34.8,28.8,93,74,42,30.38,30.22,8,3,14,0.00
2013-11-8,61.1,45.9,31.1,42.2,35.3,29.8,96,70,33,30.38,30.19,5,1,8,0.00
2013-11-9,63.7,49.3,38.3,43.7,39.9,35.0,88,72,46,30.24,30.13,8,2,16,0.00
2013-11-10,62.7,50.3,39.1,44.1,37.7,30.6,96,66,31,30.36,30.22,9,2,14,0.00
2013-11-11,68.4,51.9,34.3,46.8,38.2,31.7,92,63,31,30.29,30.13,15,1,24,0.00
2013-11-12,51.0,37.5,29.0,44.4,26.5,19.4,88,66,41,30.67,30.25,16,9,30,0.00
2013-11-13,47.7,33.8,24.0,26.1,22.0,19.4,86,64,37,30.72,30.42,5,1,10,0.00
2013-11-14,57.3,40.6,24.9,28.3,23.5,21.2,88,56,25,30.42,30.14,10,3,20,0.00
2013-11-15,54.6,47.6,38.9,50.8,39.1,24.5,93,73,50,30.16,30.01,5,1,12,0.00
2013-11-16,66.8,60.3,53.2,62.7,56.8,50.5,92,88,79,30.02,29.79,13,5,23,0.00
2013-11-17,76.9,68.0,58.0,69.7,59.4,35.8,96,77,37,29.93,29.59,14,8,33,1.11
2013-11-18,61.3,53.2,40.2,41.6,34.0,27.9,69,49,30,30.25,29.94,14,4,22,0.00
2013-11-19,50.9,43.5,37.0,30.9,29.3,26.8,73,58,39,30.31,30.17,8,3,14,0.00
2013-11-20,60.6,46.8,30.8,39.8,34.4,27.4,89,64,44,30.18,30.07,7,2,14,0.00
2013-11-21,62.9,55.4,48.6,57.0,49.1,37.6,95,80,63,30.19,30.11,9,2,17,0.28
2013-11-22,58.8,50.4,41.8,57.6,48.0,37.6,97,91,85,30.40,30.14,13,6,21,0.68
2013-11-23,43.5,37.1,24.7,37.6,26.5,14.9,88,68,32,30.63,30.38,14,9,23,0.01
2013-11-24,32.5,26.9,19.8,18.5,14.6,12.0,73,60,46,30.70,30.44,10,5,17,0.00
2013-11-25,37.8,32.6,29.8,32.3,24.8,17.8,94,74,53,30.44,30.16,9,1,14,0.05
2013-11-26,39.4,35.6,31.2,34.1,30.9,19.7,95,83,61,30.17,29.97,18,6,30,0.10
2013-11-27,31.0,25.7,19.0,19.9,13.1,10.4,83,59,45,30.38,30.12,15,7,28,0.00
2013-11-28,44.2,30.1,17.4,25.1,20.5,14.4,90,69,44,30.48,30.34,12,2,17,0.00
2013-11-29,54.6,37.2,24.0,33.0,27.5,21.2,90,70,42,30.57,30.42,3,0,9,0.00
2013-11-30,57.5,43.0,30.1,34.1,29.4,25.6,83,61,33,30.42,30.19,12,3,17,0.00
2013-12-1,55.8,49.2,42.9,42.7,37.8,30.8,77,65,57,30.19,29.90,5,1,8,0.00
2013-12-2,61.8,52.8,44.6,51.2,46.4,40.1,91,79,67,29.90,29.68,5,1,10,0.00
2013-12-3,65.0,55.1,47.9,55.4,51.4,46.5,97,88,65,29.74,29.66,8,1,14,0.00
2013-12-4,73.9,65.1,54.9,63.1,60.2,53.5,96,85,68,29.77,29.62,14,6,26,0.00
2013-12-5,65.9,42.1,31.3,62.5,37.6,29.2,92,84,68,30.17,29.76,17,8,25,0.08
2013-12-6,31.6,26.8,22.2,29.5,24.7,19.2,94,92,88,30.47,30.10,12,8,20,0.02
2013-12-7,24.4,21.3,17.7,19.2,16.8,12.8,88,83,79,30.63,30.37,10,7,20,0.00
2013-12-8,32.3,29.0,21.8,31.0,27.3,18.8,96,93,88,30.38,30.03,9,2,13,0.02
2013-12-9,32.0,29.9,27.1,29.4,26.3,19.6,95,86,73,30.30,30.14,9,3,15,0.00
2013-12-10,35.6,27.9,23.1,26.9,22.2,17.7,91,79,69,30.41,30.22,12,4,16,0.03
2013-12-11,40.8,29.5,21.3,32.9,24.6,17.9,95,83,67,30.61,30.37,13,3,20,0.12
2013-12-12,37.3,25.5,16.5,20.4,16.4,12.2,86,69,46,30.63,30.39,6,1,10,0.00
2013-12-13,42.0,32.4,21.8,34.4,25.2,18.2,92,76,55,30.38,29.96,5,1,10,0.32
2013-12-14,40.9,37.3,33.2,39.8,34.9,29.5,96,91,84,30.10,29.78,12,4,18,0.70
2013-12-15,34.0,31.8,29.4,29.4,27.8,26.0,92,85,79,30.25,30.10,13,4,24,0.00
2013-12-16,55.2,42.3,31.4,41.4,35.5,29.2,92,78,58,30.15,30.05,10,4,17,0.00
2013-12-17,49.5,40.3,30.4,37.8,33.7,28.2,92,78,54,30.30,30.07,10,2,14,0.00
2013-12-18,46.7,30.9,24.7,34.3,27.4,23.2,95,88,54,30.34,30.27,8,1,13,0.00
2013-12-25,36.6,34.8,33.6,30.9,30.1,29.6,87,83,76,30.32,30.30,1,0,3,0.00
2013-12-26,46.8,35.0,25.7,33.1,28.4,24.2,95,78,50,30.44,30.32,8,1,13,0.00
2013-12-27,52.6,37.4,24.8,36.9,30.5,23.1,95,78,52,30.46,30.33,7,1,10,0.00
2013-12-28,46.7,38.0,28.8,39.2,32.5,26.2,94,81,62,30.33,29.95,3,1,6,0.04
2013-12-29,51.6,40.7,29.3,42.6,36.1,23.3,96,84,66,30.20,29.92,14,5,22,0.15
2013-12-30,29.3,25.9,20.5,23.0,19.8,17.3,89,78,69,30.33,30.20,9,3,16,0.00
2013-12-31,44.9,31.1,20.1,30.6,24.4,16.9,92,77,55,30.45,30.29,5,1,9,0.00
2014-1-1,49.9,38.7,26.6,40.0,31.7,24.3,93,77,54,30.29,29.93,9,2,15,0.05
2014-1-2,43.1,27.9,18.4,40.7,21.8,11.6,94,78,58,30.45,29.89,17,9,32,0.01